Flight Track Log - Related Links

Times and Time Zones

All times are in EST time to prevent confusion due to time zone crossing. See the SKW4664 flight status page for this flight to view local times or setup timezone preferences in your user account.

Time Position Orientation Groundspeed Altitude Reporting Facility
EST Latitude Longitude Course Direction KTS MPH feet Rate Location/Type
Thu 02:16:23 PM 42.2081 -83.3675 12° North 156 180 1,300  Level Cleveland Center
Thu 02:17:25 PM 42.1708 -83.4156 224° Southwest 205 236 4,000 3,186 Climbing Cleveland Center
Thu 02:18:16 PM 42.1528 -83.4672 245° Southwest 190 219 7,300 3,836 Climbing Cleveland Center
Thu 02:18:26 PM 42.1553 -83.4811 284° West 182 209 7,900 2,516 Climbing Cleveland Center
Thu 02:19:00 PM 42.4393 -83.4758 North  Level Estimated
Thu 02:19:18 PM 42.1797 -83.5306 304° West 194 223 9,900  Level Cleveland Center
Thu 02:19:27 PM 42.1858 -83.5447 300° West 209 241 10,100 194 Climbing Cleveland Center
Thu 02:20:00 PM 42.5190 -83.4533 12° North  Level FlightAware Approximate
Thu 02:20:20 PM 42.2183 -83.6017 308° West 241 277 10,100  Level Cleveland Center
Thu 02:20:34 PM 42.2408 -83.6175 332° Northwest 300 345 10,100 1,161 Level Cleveland Center
Thu 02:21:00 PM 42.5987 -83.4308 12° North  Level FlightAware Approximate
Thu 02:21:22 PM 42.3053 -83.6039 North 331 381 11,300  Level Cleveland Center
Thu 02:22:24 PM 42.4022 -83.5686 15° North 348 400 13,200 1,306 Climbing Cleveland Center
Thu 02:23:26 PM 42.4958 -83.5322 16° North 350 403 14,000 384 Climbing Cleveland Center
Thu 02:24:29 PM 42.6000 -83.4908 16° North 383 441 14,000  Level Cleveland Center
Thu 02:25:31 PM 42.6964 -83.4750 North 357 411 14,000  Level Cleveland Center
Thu 02:26:33 PM 42.7808 -83.5339 333° Northwest 290 334 14,000  Level Cleveland Center
Thu 02:27:35 PM 42.8492 -83.5819 333° Northwest 279 321 14,000  Level Cleveland Center
Thu 02:28:37 PM 42.9144 -83.6283 333° Northwest 269 310 14,000 -484 Level Cleveland Center
Thu 02:29:39 PM 42.9792 -83.6750 332° Northwest 265 305 13,000 -1,210 Descending Cleveland Center
Thu 02:30:41 PM 43.0461 -83.7231 332° Northwest 270 311 11,500 -1,161 Descending Cleveland Center
Thu 02:31:43 PM 43.1225 -83.7786 332° Northwest 260 299 10,600 -1,210 Descending Cleveland Center
Thu 02:32:45 PM 43.1828 -83.8244 331° Northwest 247 284 9,000 -1,645 Descending Cleveland Center
Thu 02:33:47 PM 43.2483 -83.8683 334° Northwest 247 284 7,200 -1,597 Descending Cleveland Center
Thu 02:34:49 PM 43.3128 -83.9011 340° North 251 289 5,700 -1,548 Descending Cleveland Center
Thu 02:35:51 PM 43.3714 -83.9408 334° Northwest 225 259 4,000 -1,392 Descending Cleveland Center
Thu 02:36:54 PM 43.4247 -83.9783 333° Northwest 218 251 2,800 -864 Descending Cleveland Center
Thu 02:37:56 PM 43.4894 -83.9842 356° North 223 257 2,200 -290 Descending Cleveland Center
Thu 02:38:58 PM 43.5481 -83.9811 North 216 249 2,200 -242 Level Cleveland Center
Thu 02:40:00 PM 43.5722 -84.0175 313° West 154 177 1,700 -290 Descending Cleveland Center
Thu 02:41:02 PM 43.5631 -84.0586 253° West 146 168 1,600 -97 Descending Cleveland Center

Login

Don't have an account? Register now (free) for customized features, flight alerts, and more!